CYKO

Akulivik Airport

Akulivik, Quebec, Canada
METAR CYKO 222100Z 32014G20KT 8SM -SN DRSN OVC011 M07/M09 A3007 RMK SC8 LAST OB NEWXT / SLP185
Observed Flight Rules
Apr-22 @ 21:00 UTC (52 minutes ago) Marginal Visual Flight Rules
Wind Visibility Clouds Conditions
320° at 14 knots
 Gusting to 20 knots
8 miles
  • Overcast at 1,100' AGL
  • Light Snow
  • Low drifting
  • Snow
Temperatures Readings
Current -7°C / 19°F
Dewpoint -9°C / 16°F
Humidity 86%
Altimeter 30.07" Hg
Pressure 1018.5 hPa
Elevation 9
METAR CYKO 222100Z 32014G20KT 8SM -SN DRSN OVC011 M07/M09 A3007 RMK SC8 LAST OB NEWXT / SLP185
Observed Flight Rules
Apr-22 @ 21:00 UTC
(52 minutes ago)
MVFR
Wind Visibility
320° at 14 knots
 Gusting to 20 knots
8 miles
Clouds
  • Overcast at 1,100' AGL
Conditions
  • Light Snow
  • Low drifting
  • Snow
Temperature Dewpoint
-7°C / 19°F -9°C / 16°F
Humidity Altimeter Pressure
86% 30.07" Hg 1018.5 hPa